Time;durP1;ratioP1;P1;durP2;ratioP2;P2;SDS_P1;SDS_P2;PMS_P1;PMS_P2;Temp;Humidity;BMP_temperature;BMP_pressure;BME280_temperature;BME280_humidity;BME280_pressure;Samples;Min_cycle;Max_cycle;Signal;HPM_P1;HPM_P2
2021/11/13 00:01:50;;;;;;;35.90;18.20;;;1.30;99.90;1.00;100447.00;;;;4932079;28;93280;-66
2021/11/13 00:04:15;;;;;;;39.47;21.03;;;2.00;99.90;0.90;100441.00;;;;4933607;28;92899;-67
2021/11/13 00:06:41;;;;;;;32.70;18.13;;;1.30;99.90;0.90;100439.00;;;;4932641;28;108166;-66
2021/11/13 00:09:07;;;;;;;27.87;16.03;;;2.00;99.90;0.80;100436.00;;;;4932996;28;102943;-67
2021/11/13 00:11:34;;;;;;;34.53;17.13;;;1.20;99.90;0.80;100433.00;;;;4932760;28;94686;-66
2021/11/13 00:14:03;;;;;;;25.93;16.37;;;1.10;99.90;0.80;100442.00;;;;4933300;28;93889;-66
2021/11/13 00:16:33;;;;;;;35.20;17.37;;;1.10;99.90;0.70;100433.00;;;;4933644;28;92749;-66
2021/11/13 00:18:58;;;;;;;28.47;14.57;;;1.00;99.90;0.70;100426.00;;;;4933249;28;92817;-66
2021/11/13 00:21:24;;;;;;;29.23;15.33;;;1.00;99.90;0.70;100430.00;;;;4932219;28;93714;-66
2021/11/13 00:23:50;;;;;;;31.73;17.07;;;1.00;99.90;0.70;100428.00;;;;4932621;28;109414;-66
2021/11/13 00:26:16;;;;;;;30.77;17.27;;;1.40;99.90;0.70;100432.00;;;;4933126;28;102969;-66
2021/11/13 00:28:41;;;;;;;25.97;15.50;;;1.00;99.90;0.60;100425.00;;;;4933612;28;92922;-66
2021/11/13 00:31:07;;;;;;;29.37;18.37;;;0.90;99.90;0.60;100420.00;;;;4932153;28;121838;-66
2021/11/13 00:33:33;;;;;;;28.73;18.10;;;0.90;99.90;0.60;100426.00;;;;4932021;28;116981;-67
2021/11/13 00:35:58;;;;;;;34.63;18.50;;;0.90;99.90;0.50;100427.00;;;;4931972;28;110472;-66
2021/11/13 00:38:24;;;;;;;31.53;17.07;;;0.80;99.90;0.50;100413.00;;;;4931845;28;109573;-66
2021/11/13 00:40:50;;;;;;;26.60;14.43;;;0.80;99.90;0.50;100421.00;;;;4932039;28;121682;-66
2021/11/13 00:43:16;;;;;;;33.60;14.53;;;0.90;99.90;0.50;100423.00;;;;4932494;28;93593;-67
2021/11/13 00:45:42;;;;;;;26.57;14.90;;;0.80;99.90;0.50;100423.00;;;;4932896;28;111698;-66
2021/11/13 00:48:08;;;;;;;33.03;17.93;;;0.80;99.90;0.50;100427.00;;;;4932414;28;104304;-67
2021/11/13 00:50:35;;;;;;;29.13;16.93;;;0.80;99.90;0.50;100434.00;;;;4931974;28;94253;-66
2021/11/13 00:53:01;;;;;;;31.50;16.00;;;0.80;99.90;0.50;100427.00;;;;4932440;28;93454;-67
2021/11/13 00:55:27;;;;;;;30.13;16.30;;;0.70;99.90;0.40;100436.00;;;;4948168;28;92087;-65
2021/11/13 00:57:53;;;;;;;32.20;15.77;;;0.70;99.90;0.40;100435.00;;;;4931560;28;107960;-68
2021/11/13 01:00:21;;;;;;;29.17;16.67;;;0.70;99.90;0.40;100427.00;;;;4932391;28;113638;-66
2021/11/13 01:02:47;;;;;;;24.83;17.63;;;0.80;99.90;0.50;100435.00;;;;4931229;28;120619;-66
2021/11/13 01:05:14;;;;;;;27.13;16.37;;;0.80;99.90;0.50;100436.00;;;;4933208;28;92833;-67
2021/11/13 01:07:39;;;;;;;33.60;17.40;;;0.80;99.90;0.50;100451.00;;;;4932889;28;92819;-66
2021/11/13 01:10:08;;;;;;;32.90;18.13;;;0.80;99.90;0.50;100443.00;;;;4947452;28;95395;-67
2021/11/13 01:12:34;;;;;;;26.50;15.97;;;0.80;99.90;0.50;100443.00;;;;4936019;28;93878;-66
2021/11/13 01:15:00;;;;;;;23.97;14.80;;;0.90;99.90;0.50;100433.00;;;;4950697;28;103116;-66
2021/11/13 01:17:26;;;;;;;38.57;16.83;;;0.90;99.90;0.60;100444.00;;;;4935821;28;93665;-66
2021/11/13 01:19:52;;;;;;;32.40;18.13;;;0.80;99.90;0.60;100442.00;;;;4936448;28;94109;-66
2021/11/13 01:22:18;;;;;;;31.70;16.57;;;0.80;99.90;0.60;100442.00;;;;4935632;28;92781;-67
2021/11/13 01:24:45;;;;;;;37.50;18.33;;;0.90;99.90;0.70;100433.00;;;;4935109;28;110697;-67
2021/11/13 01:27:10;;;;;;;29.97;15.80;;;1.00;99.90;0.70;100431.00;;;;4950139;28;93974;-67
2021/11/13 01:29:36;;;;;;;25.33;15.77;;;1.00;99.90;0.70;100429.00;;;;4935823;28;93652;-67
2021/11/13 01:32:02;;;;;;;27.43;15.73;;;1.10;99.90;0.80;100434.00;;;;4934608;28;122255;-67
2021/11/13 01:34:28;;;;;;;33.10;16.67;;;1.00;99.90;0.80;100432.00;;;;4935167;28;103664;-67
2021/11/13 01:36:53;;;;;;;43.27;18.37;;;1.00;99.90;0.80;100438.00;;;;4933491;28;110501;-67
2021/11/13 01:39:19;;;;;;;25.27;16.00;;;1.10;99.90;0.80;100439.00;;;;4934168;28;122822;-67
2021/11/13 01:41:47;;;;;;;30.03;16.30;;;1.20;99.90;0.80;100434.00;;;;4934336;28;123392;-67
2021/11/13 01:44:13;;;;;;;25.20;15.87;;;1.20;99.90;0.80;100421.00;;;;4950204;28;101979;-67
2021/11/13 01:46:39;;;;;;;27.10;15.73;;;1.10;99.90;0.80;100427.00;;;;4934796;28;108203;-68
2021/11/13 01:49:06;;;;;;;28.50;15.73;;;1.20;99.90;0.80;100428.00;;;;4934235;28;123783;-67
2021/11/13 01:51:34;;;;;;;30.73;16.13;;;1.00;99.90;0.70;100425.00;;;;4934906;28;93904;-67
2021/11/13 01:54:06;;;;;;;26.43;16.33;;;1.00;99.90;0.70;100426.00;;;;4935434;28;92799;-67
2021/11/13 01:56:35;;;;;;;22.13;15.30;;;1.00;99.90;0.70;100421.00;;;;4933632;28;93057;-68
2021/11/13 01:59:03;;;;;;;24.93;14.20;;;1.30;99.90;0.70;100413.00;;;;4933464;28;92846;-67
2021/11/13 02:01:29;;;;;;;30.53;15.77;;;1.10;99.90;0.70;100421.00;;;;4934504;28;115247;-67
2021/11/13 02:03:56;;;;;;;25.53;15.10;;;1.10;99.90;0.80;100409.00;;;;4934135;28;104664;-67
2021/11/13 02:06:22;;;;;;;23.87;14.03;;;1.10;99.90;0.80;100416.00;;;;4935956;28;92759;-67
2021/11/13 02:08:48;;;;;;;29.33;15.27;;;1.10;99.90;0.80;100418.00;;;;4934665;28;98817;-67
2021/11/13 02:11:18;;;;;;;27.60;16.40;;;1.10;99.90;0.80;100426.00;;;;4934739;28;105844;-67
2021/11/13 02:13:44;;;;;;;33.80;17.27;;;1.10;99.90;0.80;100430.00;;;;4934338;28;96904;-67
2021/11/13 02:16:10;;;;;;;23.47;14.57;;;1.20;99.90;0.80;100422.00;;;;4935117;28;97914;-67
2021/11/13 02:18:38;;;;;;;32.07;16.27;;;1.00;99.90;0.70;100417.00;;;;4934587;28;103254;-67
2021/11/13 02:21:05;;;;;;;24.50;14.00;;;1.00;99.90;0.70;100420.00;;;;4934124;28;99489;-67
2021/11/13 02:23:31;;;;;;;23.40;15.23;;;1.10;99.90;0.70;100425.00;;;;4929458;28;93265;-67
2021/11/13 02:25:58;;;;;;;34.40;16.30;;;1.00;99.90;0.70;100438.00;;;;4914593;28;109392;-67
2021/11/13 02:28:26;;;;;;;26.97;15.60;;;1.00;99.90;0.70;100437.00;;;;4942300;28;93332;-67
2021/11/13 02:30:57;;;;;;;31.30;15.47;;;0.90;99.90;0.60;100426.00;;;;4933164;28;112124;-66
2021/11/13 02:33:23;;;;;;;27.87;14.57;;;1.00;99.90;0.60;100403.00;;;;4934342;28;106026;-67
2021/11/13 02:35:53;;;;;;;27.63;16.63;;;1.00;99.90;0.60;100425.00;;;;4949907;28;93044;-67
2021/11/13 02:38:30;;;;;;;22.43;14.27;;;0.90;99.90;0.60;100426.00;;;;4935204;28;93845;-67
2021/11/13 02:40:58;;;;;;;27.03;16.33;;;1.00;99.90;0.60;100424.00;;;;4948362;28;93795;-67
2021/11/13 02:43:27;;;;;;;37.97;15.80;;;1.10;99.90;0.70;100430.00;;;;4934253;28;93007;-67
2021/11/13 02:45:59;;;;;;;26.70;15.17;;;1.00;99.90;0.70;100429.00;;;;4935003;28;92884;-67
2021/11/13 02:48:28;;;;;;;25.73;14.57;;;1.00;99.90;0.70;100432.00;;;;4934528;28;93005;-68
2021/11/13 02:50:54;;;;;;;28.37;15.67;;;1.10;99.90;0.70;100428.00;;;;4932266;28;93329;-67
2021/11/13 02:53:24;;;;;;;27.93;15.20;;;1.90;99.90;0.70;100431.00;;;;4934631;28;92732;-67
2021/11/13 02:55:52;;;;;;;35.00;14.13;;;1.00;99.90;0.60;100422.00;;;;4934633;28;92852;-67
2021/11/13 02:58:20;;;;;;;29.03;16.40;;;1.00;99.90;0.60;100428.00;;;;4934056;28;95807;-67
2021/11/13 03:00:50;;;;;;;20.90;13.43;;;1.00;99.90;0.60;100428.00;;;;4934455;28;92892;-67
2021/11/13 03:03:19;;;;;;;22.43;14.50;;;1.00;99.90;0.50;100422.00;;;;4934215;28;93090;-67
2021/11/13 03:05:51;;;;;;;22.13;13.30;;;0.90;99.90;0.50;100422.00;;;;4932833;28;98040;-67
2021/11/13 03:08:30;;;;;;;27.73;16.13;;;0.80;99.90;0.50;100425.00;;;;4934454;28;93443;-67
2021/11/13 03:10:59;;;;;;;24.53;14.50;;;0.90;99.90;0.40;100419.00;;;;4932965;28;106462;-67
2021/11/13 03:13:26;;;;;;;30.63;15.43;;;0.70;99.90;0.40;100428.00;;;;4934361;28;93019;-66
2021/11/13 03:15:52;;;;;;;31.33;14.20;;;1.60;99.90;0.30;100426.00;;;;4934655;28;92809;-67
2021/11/13 03:18:19;;;;;;;24.67;13.90;;;0.70;99.90;0.30;100422.00;;;;4933158;28;108641;-66
2021/11/13 03:20:46;;;;;;;25.47;14.70;;;0.60;99.90;0.30;100411.00;;;;4933952;28;93978;-67
2021/11/13 03:23:12;;;;;;;24.63;14.13;;;1.70;99.90;0.30;100415.00;;;;4934332;28;92143;-68
2021/11/13 03:25:46;;;;;;;25.77;13.40;;;0.60;99.90;0.20;100411.00;;;;4934032;28;93041;-67
2021/11/13 03:28:16;;;;;;;26.13;14.63;;;0.50;99.90;0.10;100410.00;;;;4933782;28;109038;-67
2021/11/13 03:30:42;;;;;;;25.03;13.90;;;0.50;99.90;0.10;100413.00;;;;4933019;28;93886;-66
2021/11/13 03:33:09;;;;;;;26.30;12.20;;;0.40;99.90;0.00;100402.00;;;;4933658;28;100922;-66
2021/11/13 03:35:35;;;;;;;22.97;12.80;;;0.40;99.90;0.00;100405.00;;;;4933503;28;99045;-66
2021/11/13 03:38:09;;;;;;;19.60;12.40;;;0.30;99.90;0.00;100405.00;;;;4947966;28;92978;-66
2021/11/13 03:40:37;;;;;;;29.50;15.10;;;0.40;99.90;0.10;100409.00;;;;4928520;28;93047;-66
2021/11/13 03:43:04;;;;;;;30.73;16.67;;;0.40;99.90;0.10;100400.00;;;;4926770;28;92798;-67
2021/11/13 03:45:30;;;;;;;23.43;14.13;;;0.40;99.90;0.10;100400.00;;;;4933059;28;109029;-67
2021/11/13 03:47:56;;;;;;;23.87;14.23;;;0.40;99.90;0.10;100405.00;;;;4934407;28;92667;-66
2021/11/13 03:50:23;;;;;;;19.50;15.20;;;0.50;99.90;0.10;100402.00;;;;4946884;28;121298;-67
2021/11/13 03:52:51;;;;;;;28.73;15.93;;;0.50;99.90;0.10;100404.00;;;;4927527;28;92816;-67
2021/11/13 03:55:16;;;;;;;25.10;14.00;;;0.50;99.90;0.10;100398.00;;;;4933757;28;94018;-66
2021/11/13 03:57:42;;;;;;;22.67;14.00;;;0.50;99.90;0.10;100403.00;;;;4932213;28;123657;-66
2021/11/13 04:00:09;;;;;;;23.30;13.53;;;0.50;99.90;0.20;100400.00;;;;4933798;28;93011;-67
2021/11/13 04:02:35;;;;;;;21.90;12.77;;;0.50;99.90;0.20;100411.00;;;;4932874;28;92927;-66
2021/11/13 04:05:01;;;;;;;20.67;14.03;;;0.50;99.90;0.30;100401.00;;;;4933522;28;92632;-66
2021/11/13 04:07:27;;;;;;;22.30;14.20;;;0.60;99.90;0.30;100403.00;;;;4931708;28;93958;-66
2021/11/13 04:09:53;;;;;;;26.80;14.77;;;0.60;99.90;0.40;100400.00;;;;4931742;28;123004;-67
2021/11/13 04:12:18;;;;;;;29.27;14.53;;;0.60;99.90;0.40;100404.00;;;;4934167;28;92289;-67
2021/11/13 04:14:45;;;;;;;27.07;13.50;;;0.70;99.90;0.40;100400.00;;;;4932830;28;106855;-66
2021/11/13 04:17:12;;;;;;;21.53;13.77;;;0.80;99.90;0.50;100398.00;;;;4933488;28;92921;-67
2021/11/13 04:19:39;;;;;;;23.10;12.77;;;0.70;99.90;0.50;100393.00;;;;4932502;28;93910;-66
2021/11/13 04:22:05;;;;;;;28.77;15.50;;;1.10;99.90;0.50;100389.00;;;;4925530;28;93736;-67
2021/11/13 04:24:32;;;;;;;27.87;15.03;;;0.90;99.90;0.50;100395.00;;;;4927890;28;99778;-67
2021/11/13 04:26:58;;;;;;;23.27;14.17;;;0.90;99.90;0.60;100395.00;;;;4933499;28;93714;-67
2021/11/13 04:29:24;;;;;;;24.10;13.87;;;1.60;99.90;0.60;100409.00;;;;4931976;28;121534;-67
2021/11/13 04:31:49;;;;;;;19.57;12.73;;;0.80;99.90;0.60;100397.00;;;;4932773;28;102727;-67
2021/11/13 04:34:23;;;;;;;25.00;13.73;;;0.90;99.90;0.70;100391.00;;;;4932835;28;92731;-67
2021/11/13 04:36:55;;;;;;;32.43;14.57;;;1.00;99.90;0.70;100402.00;;;;4932912;28;92404;-67
2021/11/13 04:39:24;;;;;;;24.13;13.33;;;1.10;99.90;0.80;100413.00;;;;4933699;28;92818;-67
2021/11/13 04:41:51;;;;;;;25.83;14.20;;;1.10;99.90;0.80;100402.00;;;;4932777;28;92800;-67
2021/11/13 04:44:18;;;;;;;27.33;14.37;;;1.00;99.90;0.80;100397.00;;;;4944170;28;93851;-67
2021/11/13 04:46:43;;;;;;;29.53;15.57;;;1.10;99.90;0.80;100403.00;;;;4917549;28;124605;-67
2021/11/13 04:49:09;;;;;;;29.03;14.10;;;1.10;99.90;0.80;100401.00;;;;4938146;28;118411;-67
2021/11/13 04:51:35;;;;;;;24.60;13.30;;;1.20;99.90;0.80;100401.00;;;;4938072;28;100129;-66
2021/11/13 04:54:03;;;;;;;27.47;15.10;;;1.20;99.90;0.90;100394.00;;;;4939641;28;107791;-67
2021/11/13 04:56:28;;;;;;;29.20;14.13;;;1.20;99.90;0.80;100398.00;;;;4938518;28;113970;-67
2021/11/13 04:58:54;;;;;;;23.40;12.53;;;1.20;99.90;0.80;100388.00;;;;4938417;28;121402;-67
2021/11/13 05:01:20;;;;;;;20.03;13.00;;;1.10;99.90;0.80;100373.00;;;;4938216;28;113941;-67
2021/11/13 05:03:45;;;;;;;26.73;13.00;;;2.00;99.90;0.90;100379.00;;;;4938725;28;108777;-68
2021/11/13 05:06:11;;;;;;;23.37;13.20;;;1.10;99.90;0.90;100373.00;;;;4938234;28;122707;-68
2021/11/13 05:08:37;;;;;;;24.63;11.07;;;1.20;99.90;1.00;100372.00;;;;4939022;28;93731;-67
2021/11/13 05:11:03;;;;;;;23.70;13.13;;;1.30;99.90;1.10;100364.00;;;;4938776;28;92792;-67
2021/11/13 05:13:28;;;;;;;25.97;13.60;;;1.40;99.90;1.10;100368.00;;;;4938849;28;109030;-68
2021/11/13 05:15:54;;;;;;;22.63;13.50;;;1.30;99.90;1.10;100363.00;;;;4937988;28;123796;-67
2021/11/13 05:18:21;;;;;;;19.67;12.40;;;1.30;99.90;1.10;100359.00;;;;4938080;28;122075;-67
2021/11/13 05:20:47;;;;;;;22.73;11.97;;;1.40;99.90;1.20;100356.00;;;;4939256;28;92679;-68
2021/11/13 05:23:12;;;;;;;22.57;12.73;;;1.50;99.90;1.20;100355.00;;;;4953840;28;93016;-67
2021/11/13 05:25:39;;;;;;;21.90;11.93;;;1.50;99.90;1.30;100350.00;;;;4938493;28;123023;-67
2021/11/13 05:28:04;;;;;;;21.70;12.33;;;1.60;99.90;1.40;100344.00;;;;4937710;28;123160;-67
2021/11/13 05:30:30;;;;;;;29.97;13.83;;;1.80;99.90;1.50;100351.00;;;;4938365;28;114616;-67
2021/11/13 05:32:56;;;;;;;16.50;11.40;;;1.70;99.90;1.50;100343.00;;;;4937005;28;107725;-67
2021/11/13 05:35:23;;;;;;;22.10;11.43;;;1.70;99.90;1.50;100338.00;;;;4938744;28;97623;-67
2021/11/13 05:37:51;;;;;;;22.33;12.43;;;1.80;99.90;1.60;100339.00;;;;4938894;28;93183;-67
2021/11/13 05:40:17;;;;;;;24.60;12.43;;;1.80;99.90;1.60;100345.00;;;;4939176;28;92958;-68
2021/11/13 05:42:44;;;;;;;17.83;11.03;;;1.90;99.90;1.70;100352.00;;;;4939106;28;93086;-68
2021/11/13 05:45:13;;;;;;;19.93;10.77;;;2.30;99.90;1.80;100359.00;;;;4938552;28;94158;-68
2021/11/13 05:47:40;;;;;;;22.80;12.47;;;2.10;99.90;1.90;100365.00;;;;4938367;28;93023;-68
2021/11/13 05:50:11;;;;;;;17.17;10.73;;;2.00;99.90;1.90;100371.00;;;;4939580;28;92152;-68
2021/11/13 05:52:39;;;;;;;19.00;12.67;;;2.10;99.90;2.00;100375.00;;;;4936603;28;93024;-68
2021/11/13 05:55:05;;;;;;;18.50;11.83;;;2.10;99.90;2.10;100374.00;;;;4937551;28;113644;-68
2021/11/13 05:57:31;;;;;;;22.13;12.53;;;2.30;99.90;2.20;100378.00;;;;4934907;28;94123;-68
2021/11/13 05:59:57;;;;;;;22.63;12.23;;;2.40;99.90;2.30;100378.00;;;;4934421;28;111264;-68
2021/11/13 06:02:23;;;;;;;17.63;11.20;;;2.50;99.90;2.40;100374.00;;;;4934410;28;109021;-68
2021/11/13 06:04:49;;;;;;;26.70;12.63;;;2.70;99.90;2.60;100375.00;;;;4934264;28;123261;-68
2021/11/13 06:07:14;;;;;;;19.43;12.10;;;2.80;99.90;2.70;100372.00;;;;4934171;28;95291;-68
2021/11/13 06:09:40;;;;;;;20.07;12.37;;;3.30;99.90;2.80;100374.00;;;;4932970;28;104458;-68
2021/11/13 06:12:06;;;;;;;23.47;13.23;;;3.00;99.90;2.90;100373.00;;;;4933143;28;108599;-68
2021/11/13 06:14:32;;;;;;;17.43;12.00;;;3.10;99.90;3.10;100383.00;;;;4934153;28;107118;-67
2021/11/13 06:16:58;;;;;;;16.23;10.67;;;3.30;99.90;3.20;100385.00;;;;4932636;28;122590;-68
2021/11/13 06:19:23;;;;;;;23.60;12.60;;;3.30;99.90;3.30;100385.00;;;;4947663;28;93234;-69
2021/11/13 06:21:49;;;;;;;17.77;11.10;;;3.40;99.90;3.40;100380.00;;;;4929916;28;95734;-69
2021/11/13 06:24:15;;;;;;;16.17;11.00;;;3.60;99.90;3.50;100387.00;;;;4931218;28;101519;-69
2021/11/13 06:26:41;;;;;;;17.90;10.43;;;3.80;99.90;3.60;100383.00;;;;4930427;28;121591;-70
2021/11/13 06:29:06;;;;;;;16.40;10.07;;;3.80;99.90;3.70;100376.00;;;;4945819;28;112363;-69
2021/11/13 06:31:32;;;;;;;16.50;9.77;;;3.80;99.90;3.70;100398.00;;;;4931137;28;92766;-69
2021/11/13 06:33:58;;;;;;;16.47;10.23;;;3.90;99.90;3.80;100391.00;;;;4931728;28;94062;-69
2021/11/13 06:36:24;;;;;;;14.63;9.17;;;4.70;99.90;3.80;100392.00;;;;4931362;28;119992;-69
2021/11/13 06:38:49;;;;;;;18.93;10.20;;;4.00;99.90;3.80;100396.00;;;;4930949;28;111749;-69
2021/11/13 06:41:15;;;;;;;18.33;10.40;;;4.00;99.90;3.90;100401.00;;;;4931225;28;107728;-69
2021/11/13 06:43:41;;;;;;;22.93;10.60;;;4.00;99.90;3.80;100413.00;;;;4930165;28;120947;-69
2021/11/13 06:46:06;;;;;;;20.63;10.63;;;4.10;99.90;3.80;100411.00;;;;4929954;28;121522;-69
2021/11/13 06:48:32;;;;;;;17.07;10.37;;;4.00;99.90;3.80;100423.00;;;;4931087;28;113111;-69
2021/11/13 06:50:58;;;;;;;18.90;10.40;;;4.10;99.90;3.80;100417.00;;;;4930707;28;107031;-69
2021/11/13 06:53:23;;;;;;;15.73;9.17;;;3.90;99.90;3.80;100430.00;;;;4939650;28;121595;-69
2021/11/13 06:55:50;;;;;;;14.90;8.63;;;3.90;99.90;3.80;100428.00;;;;4929626;28;101451;-69
2021/11/13 06:58:17;;;;;;;17.33;10.07;;;4.00;99.90;3.80;100444.00;;;;4931215;28;92827;-69
2021/11/13 07:00:43;;;;;;;17.37;9.43;;;4.00;99.90;3.80;100423.00;;;;4931718;28;93149;-69
2021/11/13 07:03:09;;;;;;;15.73;9.93;;;4.70;99.90;3.80;100425.00;;;;4932420;28;99329;-70
2021/11/13 07:05:34;;;;;;;17.17;10.13;;;4.00;99.90;3.80;100444.00;;;;4928416;28;121549;-69
2021/11/13 07:08:00;;;;;;;17.00;8.73;;;4.10;99.90;3.80;100432.00;;;;4931638;28;92802;-69
2021/11/13 07:10:28;;;;;;;15.40;8.57;;;4.10;99.90;3.80;100437.00;;;;4930119;28;110089;-69
2021/11/13 07:12:55;;;;;;;14.50;9.33;;;4.60;99.90;3.80;100428.00;;;;4931781;28;93186;-69
2021/11/13 07:15:24;;;;;;;16.80;9.73;;;4.00;99.90;3.80;100436.00;;;;4939584;28;93696;-69
2021/11/13 07:17:50;;;;;;;17.47;10.10;;;4.40;99.90;3.80;100438.00;;;;4931775;28;93539;-69
2021/11/13 07:20:16;;;;;;;16.87;9.57;;;4.00;99.90;3.80;100444.00;;;;4932147;28;92905;-69
2021/11/13 07:22:45;;;;;;;15.03;9.43;;;4.00;99.90;3.90;100431.00;;;;4931097;28;93123;-68
2021/11/13 07:25:15;;;;;;;17.43;10.13;;;4.00;99.90;3.90;100431.00;;;;4929458;28;94222;-68
2021/11/13 07:27:45;;;;;;;18.53;11.23;;;4.10;99.90;3.90;100429.00;;;;4931029;28;92185;-68
2021/11/13 07:30:18;;;;;;;15.57;9.80;;;4.10;99.90;3.90;100428.00;;;;4930991;28;93099;-68
2021/11/13 07:32:45;;;;;;;16.97;9.40;;;4.20;99.90;4.00;100440.00;;;;4930923;28;93262;-68
2021/11/13 07:35:10;;;;;;;13.90;8.33;;;4.70;99.90;4.00;100444.00;;;;4930586;28;93928;-68
2021/11/13 07:37:36;;;;;;;18.13;8.57;;;4.20;99.90;4.10;100431.00;;;;4930717;28;110578;-68
2021/11/13 07:40:04;;;;;;;14.37;8.37;;;4.30;99.90;4.20;100445.00;;;;4930530;28;109371;-68
2021/11/13 07:42:30;;;;;;;11.60;7.13;;;4.30;99.90;4.30;100446.00;;;;4930214;28;93969;-68
2021/11/13 07:44:57;;;;;;;13.43;7.30;;;5.10;99.90;4.40;100446.00;;;;4930054;28;123196;-68
2021/11/13 07:47:23;;;;;;;17.83;8.27;;;4.50;99.90;4.50;100444.00;;;;4931416;28;92988;-68
2021/11/13 07:49:49;;;;;;;15.20;8.60;;;4.70;99.90;4.60;100450.00;;;;4930425;28;98907;-69
2021/11/13 07:52:15;;;;;;;13.77;8.73;;;4.70;99.90;4.70;100448.00;;;;4930559;28;92570;-69
2021/11/13 07:54:41;;;;;;;13.03;8.23;;;4.80;99.90;4.80;100440.00;;;;4930594;28;93298;-69
2021/11/13 07:57:08;;;;;;;12.07;7.77;;;5.60;99.90;4.90;100459.00;;;;4930203;28;109472;-69
2021/11/13 07:59:35;;;;;;;13.73;7.93;;;5.00;99.90;4.90;100448.00;;;;4931264;28;93916;-69
2021/11/13 08:02:02;;;;;;;14.03;7.27;;;5.40;99.90;5.00;100445.00;;;;4930228;28;94803;-69
2021/11/13 08:04:27;;;;;;;11.43;7.00;;;5.20;99.90;5.10;100462.00;;;;4927164;28;103317;-70
2021/11/13 08:06:53;;;;;;;11.83;7.53;;;5.80;99.90;5.20;100454.00;;;;4930226;28;99326;-69
2021/11/13 08:09:19;;;;;;;13.40;7.67;;;5.90;99.90;5.30;100456.00;;;;4930810;28;108473;-69
2021/11/13 08:11:45;;;;;;;10.73;6.53;;;5.40;99.90;5.30;100464.00;;;;4929586;28;122836;-68
2021/11/13 08:14:10;;;;;;;10.13;7.33;;;6.10;99.90;5.40;100455.00;;;;4929997;28;121842;-69
2021/11/13 08:16:36;;;;;;;14.33;7.80;;;5.50;99.90;5.50;100462.00;;;;4930136;28;111346;-69
2021/11/13 08:19:03;;;;;;;12.27;7.70;;;5.50;99.90;5.50;100468.00;;;;4931490;28;92934;-69
2021/11/13 08:21:28;;;;;;;13.43;7.10;;;5.60;99.90;5.60;100463.00;;;;4929123;28;93459;-68
2021/11/13 08:23:54;;;;;;;13.43;7.80;;;6.40;99.90;5.60;100456.00;;;;4928665;28;122400;-68
2021/11/13 08:26:20;;;;;;;10.80;6.83;;;6.30;99.90;5.70;100465.00;;;;4930174;28;105232;-68
2021/11/13 08:28:46;;;;;;;16.83;8.70;;;5.80;99.90;5.80;100469.00;;;;4937878;28;110125;-68
2021/11/13 08:31:11;;;;;;;11.93;7.70;;;6.10;99.90;5.80;100462.00;;;;4946749;28;110148;-68
2021/11/13 08:33:37;;;;;;;12.00;6.70;;;6.60;99.90;5.90;100468.00;;;;4929545;28;120889;-68
2021/11/13 08:36:03;;;;;;;10.97;7.43;;;6.40;99.90;5.90;100468.00;;;;4944524;28;109588;-68
2021/11/13 08:38:29;;;;;;;11.77;7.37;;;6.10;99.90;6.00;100468.00;;;;4931113;28;92854;-68
2021/11/13 08:40:57;;;;;;;12.43;6.47;;;6.40;99.90;6.00;100474.00;;;;4928795;28;92351;-69
2021/11/13 08:43:23;;;;;;;13.60;7.60;;;6.20;99.90;6.10;100474.00;;;;4929501;28;109053;-67
2021/11/13 08:45:50;;;;;;;10.40;6.40;;;6.20;99.90;6.10;100474.00;;;;4930800;28;93017;-68
2021/11/13 08:48:16;;;;;;;11.00;6.40;;;6.30;99.90;6.20;100471.00;;;;4930456;28;94214;-69
2021/11/13 08:50:43;;;;;;;13.47;8.27;;;6.70;99.90;6.20;100476.00;;;;4929671;28;112486;-68
2021/11/13 08:53:10;;;;;;;11.47;8.87;;;6.40;99.90;6.30;100476.00;;;;4929453;28;113452;-68
2021/11/13 08:55:38;;;;;;;8.90;7.03;;;6.40;99.90;6.40;100462.00;;;;4930465;28;93229;-68
2021/11/13 08:58:07;;;;;;;13.20;7.67;;;6.70;99.90;6.50;100463.00;;;;4929716;28;92929;-68
2021/11/13 09:00:59;;;;;;;10.17;6.67;;;7.10;99.90;6.50;100472.00;;;;4927988;28;93809;-68
2021/11/13 09:03:42;;;;;;;11.30;7.27;;;6.60;99.90;6.60;100475.00;;;;4927805;28;93397;-68
2021/11/13 09:06:13;;;;;;;6.73;5.50;;;6.70;99.90;6.70;100471.00;;;;4931325;28;92142;-67
2021/11/13 09:08:40;;;;;;;7.90;5.90;;;6.80;99.90;6.80;100484.00;;;;4930576;28;92966;-68
2021/11/13 09:11:09;;;;;;;8.53;5.57;;;6.90;99.90;6.90;100480.00;;;;4929014;28;93933;-68
2021/11/13 09:13:36;;;;;;;9.80;5.00;;;7.00;99.90;7.00;100473.00;;;;4929543;28;93764;-68
2021/11/13 09:16:05;;;;;;;9.17;4.40;;;7.20;99.90;7.10;100475.00;;;;4930199;28;92903;-68
2021/11/13 09:18:31;;;;;;;9.07;5.30;;;7.20;99.90;7.20;100488.00;;;;4930826;28;93032;-68
2021/11/13 09:20:57;;;;;;;7.43;4.60;;;7.30;99.90;7.30;100483.00;;;;4929453;28;93243;-68
2021/11/13 09:23:23;;;;;;;7.70;4.93;;;7.40;99.90;7.30;100484.00;;;;4927660;28;113045;-68
2021/11/13 09:25:49;;;;;;;7.30;5.10;;;7.40;99.90;7.40;100482.00;;;;4929743;28;105605;-68
2021/11/13 09:28:16;;;;;;;7.00;4.03;;;7.50;99.90;7.50;100477.00;;;;4929483;28;102451;-68
2021/11/13 09:30:42;;;;;;;6.83;4.50;;;7.60;99.90;7.60;100475.00;;;;4929701;28;113028;-67
2021/11/13 09:33:09;;;;;;;12.50;5.07;;;7.60;99.90;7.60;100478.00;;;;4931229;28;122597;-67
2021/11/13 09:35:37;;;;;;;9.20;4.33;;;7.70;99.90;7.70;100474.00;;;;4932109;28;92833;-67
2021/11/13 09:38:03;;;;;;;9.13;4.47;;;7.70;99.90;7.70;100474.00;;;;4933522;28;94436;-68
2021/11/13 09:40:30;;;;;;;9.63;5.23;;;7.80;99.90;7.80;100473.00;;;;4933028;28;97208;-67
2021/11/13 09:43:00;;;;;;;9.13;4.37;;;7.90;99.90;7.80;100471.00;;;;4932722;28;110804;-67
2021/11/13 09:45:27;;;;;;;5.40;4.13;;;7.90;99.90;7.90;100486.00;;;;4933268;28;93091;-67
2021/11/13 09:47:56;;;;;;;7.30;4.67;;;8.00;99.90;8.00;100476.00;;;;4933856;28;93075;-67
2021/11/13 09:50:29;;;;;;;7.60;4.10;;;8.00;99.90;8.00;100471.00;;;;4914047;28;95681;-68
2021/11/13 09:52:56;;;;;;;9.80;5.30;;;8.10;99.90;8.10;100487.00;;;;4946905;28;93158;-68
2021/11/13 09:55:23;;;;;;;5.50;4.73;;;8.20;99.90;8.30;100473.00;;;;4933680;28;92243;-68
2021/11/13 09:57:49;;;;;;;7.53;4.10;;;8.30;99.90;8.30;100475.00;;;;4933766;28;93074;-68
2021/11/13 10:00:28;;;;;;;7.43;4.57;;;8.40;99.90;8.40;100480.00;;;;4932449;28;93509;-68
2021/11/13 10:02:55;;;;;;;5.93;4.10;;;8.50;99.90;8.50;100476.00;;;;4930355;28;94002;-68
2021/11/13 10:05:21;;;;;;;5.43;4.13;;;8.60;99.90;8.60;100476.00;;;;4932836;28;99068;-68
2021/11/13 10:07:48;;;;;;;6.03;4.03;;;8.60;99.90;8.70;100477.00;;;;4932897;28;92855;-68
2021/11/13 10:10:27;;;;;;;7.37;4.20;;;8.70;99.90;8.70;100481.00;;;;4932452;28;111255;-68
2021/11/13 10:12:54;;;;;;;6.90;4.17;;;8.70;99.90;8.80;100480.00;;;;4931194;28;93406;-67
2021/11/13 10:15:38;;;;;;;4.63;3.67;;;8.80;99.90;8.90;100470.00;;;;4931115;28;93111;-67
2021/11/13 10:18:09;;;;;;;7.47;4.50;;;8.90;99.90;9.00;100471.00;;;;4925089;28;98501;-68
2021/11/13 10:20:47;;;;;;;5.27;3.20;;;9.00;99.90;9.10;100467.00;;;;4929904;28;94800;-67
2021/11/13 10:23:46;;;;;;;6.87;4.13;;;9.10;99.90;9.20;100472.00;;;;4932454;28;92878;-68
2021/11/13 10:26:31;;;;;;;5.57;3.97;;;9.20;99.90;9.30;100460.00;;;;4925100;28;93112;-67
2021/11/13 10:29:07;;;;;;;5.50;3.30;;;9.30;99.90;9.30;100458.00;;;;4930349;28;93823;-66
2021/11/13 10:31:35;;;;;;;8.13;4.43;;;9.40;99.90;9.40;100451.00;;;;4930213;28;93093;-66
2021/11/13 10:34:06;;;;;;;5.07;3.63;;;9.40;99.90;9.40;100455.00;;;;4930189;28;94985;-65
2021/11/13 10:36:53;;;;;;;5.00;3.73;;;9.50;99.90;9.50;100456.00;;;;4932358;28;92779;-66
2021/11/13 10:39:23;;;;;;;6.73;3.87;;;9.80;99.90;9.50;100446.00;;;;4946853;28;92835;-66
2021/11/13 10:42:05;;;;;;;6.87;3.83;;;9.50;99.90;9.50;100456.00;;;;4924045;28;114809;-66
2021/11/13 10:44:34;;;;;;;7.00;4.03;;;9.60;99.90;9.60;100451.00;;;;4929530;28;94499;-66
2021/11/13 10:47:08;;;;;;;5.10;3.70;;;9.60;99.90;9.70;100448.00;;;;4931621;28;92340;-66
2021/11/13 10:49:34;;;;;;;7.03;3.90;;;9.70;99.90;9.70;100458.00;;;;4932660;28;93336;-66